Ευχαριστούμε που συμβάλλετε στη διατήρηση της σελίδας μας.

Thank you for your donations, it really helps to maintain the page.

Meteo Stats And More

Meteo Stats And More






Fire Weather Index (FWI)

Romanos Cam more information Romanos Cam


Istioploikos Omilos Patras more information Istioploikos Omilos Patras


Thunder radar more information blitzortung!


Rain radar more information rain snow radar



Nearby METAR Reports

  
LGRX - Araxos (civ/Afb), Greece
Distance from station: WSW 30km
Updated: 20-09-2018 00:50
Few Clouds
Few Clouds  
 Wind from NNE
Wind: NNE 13 km/h
Temperature:  24°C
Dew Point:  16°C
Humidity:  61%
Barometer:  1017 hPa
Clouds:  Few Clouds
Visibility:  10 km
Cloud details:  Few Clouds 610 m
2018/09/19 21:50 LGRX 192150Z 03007KT 9999 FEW020 24/16 Q1017
LGAD - Andravida (civ/A, Greece
Distance from station: SW 55km
Updated: 20-09-2018 00:50
Clear
Clear  
 Wind from calm
Wind: Calm
Temperature:  19°C
Dew Point:  15°C
Humidity:  78%
Barometer:  1017 hPa
Summary:  Clear
Visibility:  greater than 10 km
2018/09/19 21:50 LGAD 192150Z 00000KT CAVOK 19/15 Q1017
LGZA - Zakinthos Airpor, Greece
Distance from station: SW 95km
Updated: 19-09-2018 22:20
NOT Current
Clear
Clear  
 Wind from calm
Wind: Calm
Temperature:  24°C
Dew Point:  18°C
Humidity:  69%
Barometer:  1017 hPa
Summary:  Clear
Visibility:  greater than 10 km
2018/09/19 19:20 LGZA 191920Z 00000KT CAVOK 24/18 Q1017
LGKF - Kefallinia, Greece
Distance from station: W 110km
Updated: 19-09-2018 22:50
NOT Current
Few Clouds
Few Clouds  
 Wind from N
Wind: N 7 km/h
Temperature:  23°C
Dew Point:  20°C
Humidity:  83%
Barometer:  1018 hPa
Clouds:  Few Clouds
Visibility:  10 km
Cloud details:  Few Clouds 549 m
2018/09/19 19:50 LGKF 191950Z 36004KT 9999 FEW018 23/20 Q1018
LGPZ - Preveza/Aktion, Greece
Distance from station: NW 114km
Updated: 20-09-2018 00:50
Clear
Clear  
 Wind from calm
Wind: Calm
Temperature:  22°C
Dew Point:  19°C
Humidity:  83%
Barometer:  1018 hPa
Summary:  Clear
Visibility:  greater than 10 km
2018/09/19 21:50 LGPZ 192150Z 00000KT CAVOK 22/19 Q1018
LGKL - Kalamata (hel-Af, Greece
Distance from station: S 132km
Updated: 20-09-2018 00:50
Partly Cloudy
Partly Cloudy  
 Wind from calm
Wind: Calm
Temperature:  21°C
Dew Point:  17°C
Humidity:  78%
Barometer:  1017 hPa
Clouds:  Partly Cloudy
Visibility:  10 km
Cloud details:  Partly Cloudy 914 m
2018/09/19 21:50 LGKL 192150Z 00000KT 9999 SCT030 21/17 Q1017
LGBL - Nea Anchialos, Greece
Distance from station: NE 142km
Updated: 19-09-2018 23:50
NOT Current
Clear
Clear  
 Wind from W
Wind: W 11 km/h
Temperature:  17°C
Dew Point:  13°C
Humidity:  77%
Barometer:  1020 hPa
Summary:  Clear
Visibility:  greater than 10 km
2018/09/19 20:50 LGBL 192050Z 28006KT CAVOK 17/13 Q1020
LGEL - Elefsis (hel-Afb, Greece
Distance from station: E 158km
Updated: 20-09-2018 00:50
Clear
Clear  
 Wind from NNW
Wind: NNW 9 km/h
Temperature:  21°C
Dew Point:  13°C
Humidity:  60%
Barometer:  1018 hPa
Summary:  Clear
Visibility:  greater than 10 km
2018/09/19 21:50 LGEL 192150Z 34005KT CAVOK 21/13 Q1018
LGIO - Ioannina, Greece
Distance from station: NNW 181km
Updated: 19-09-2018 22:20
NOT Current
Few Clouds
Few Clouds  
 Wind from varies
Wind: varies 0 km/h
Temperature:  21°C
Dew Point:  18°C
Humidity:  83%
Barometer:  1020 hPa
Clouds:  Few Clouds
Visibility:  10 km
Cloud details:  Few Clouds 1067 m
2018/09/19 19:20 LGIO 191920Z /////KT 9999 FEW035 21/18 Q1020
LGSK - Skiathos Island, Greece
Distance from station: NE 185km
Updated: 19-09-2018 20:50
NOT Current
Clear
Clear  
 Wind from calm
Wind: Calm
Temperature:  22°C
Dew Point:  15°C
Humidity:  65%
Barometer:  1019 hPa
Summary:  Clear
Visibility:  greater than 10 km
2018/09/19 17:50 LGSK 191750Z 00000KT CAVOK 22/15 Q1019
LGAV - Athens/Elef-Ven, Greece
Distance from station: E 195km
Updated: 20-09-2018 00:50
Clear
Clear  
 Wind from N
Wind: N 13 km/h
Temperature:  22°C
Dew Point:  13°C
Humidity:  57%
Barometer:  1018 hPa
Summary:  Clear
Visibility:  greater than 10 km
2018/09/19 21:50 LGAV 192150Z 36007KT CAVOK 22/13 Q1018 NOSIG
LGKR - Ioannis Kapodist, Greece
Distance from station: NW 221km
Updated: 20-09-2018 00:50
Few Clouds
Few Clouds  
 Wind from calm
Wind: Calm
Temperature:  23°C
Dew Point:  20°C
Humidity:  83%
Barometer:  1017 hPa
Clouds:  Few Clouds
Visibility:  10 km
Cloud details:  Few Clouds 914 m
2018/09/19 21:50 LGKR 192150Z 00000KT 9999 FEW030 23/20 Q1017 NOSIG

Script developed by  Saratoga-weather.org Adapted for the template by  Weerstation Leuven

You find our weather info also at:


European Weather Network

WeatherCloud

Weather Underground

Hellas Meteo Network

AWEKAS

HAMweather, WeatherForYou, PWS Weather

    
MeteoPatras.Eu